createdAt,value
2023-05-23T00:01:50.918Z,12.10
2023-05-23T00:04:18.784Z,12.10
2023-05-23T00:06:46.856Z,12.20
2023-05-23T00:09:14.820Z,12.00
2023-05-23T00:11:45.577Z,12.10
2023-05-23T00:14:14.226Z,12.10
2023-05-23T00:16:44.057Z,12.10
2023-05-23T00:19:14.891Z,12.00
2023-05-23T00:21:48.708Z,12.00
2023-05-23T00:24:18.615Z,12.00
2023-05-23T00:26:46.632Z,11.90
2023-05-23T00:29:16.603Z,11.90
2023-05-23T00:31:46.564Z,11.90
2023-05-23T00:34:20.069Z,12.00
2023-05-23T00:36:48.103Z,12.00
2023-05-23T00:39:22.005Z,11.90
2023-05-23T00:41:52.391Z,11.90
2023-05-23T00:44:21.697Z,11.80
2023-05-23T00:46:51.487Z,11.80
2023-05-23T00:49:20.326Z,11.80
2023-05-23T00:51:49.762Z,11.80
2023-05-23T00:54:43.643Z,11.80
2023-05-23T00:57:11.320Z,11.80
2023-05-23T00:59:39.062Z,11.80
2023-05-23T01:02:06.803Z,11.80
2023-05-23T01:04:36.054Z,11.30
2023-05-23T01:07:03.590Z,11.80
2023-05-23T01:09:31.596Z,11.70
2023-05-23T01:12:01.867Z,11.60
2023-05-23T01:14:33.228Z,11.60
2023-05-23T01:17:09.400Z,11.60
2023-05-23T01:19:55.202Z,11.60
2023-05-23T01:22:37.438Z,11.60
2023-05-23T01:25:10.955Z,11.60
2023-05-23T01:27:58.554Z,11.60
2023-05-23T01:30:30.735Z,11.60
2023-05-23T01:32:59.365Z,11.60
2023-05-23T01:35:27.964Z,11.50
2023-05-23T01:37:55.812Z,11.50
2023-05-23T01:40:23.795Z,11.60
2023-05-23T01:42:51.949Z,11.60
2023-05-23T01:45:20.104Z,11.60
2023-05-23T01:47:51.147Z,11.60
2023-05-23T01:50:18.758Z,11.60
2023-05-23T01:52:46.973Z,11.90
2023-05-23T01:55:18.569Z,11.60
2023-05-23T01:57:49.718Z,11.60
2023-05-23T02:00:17.474Z,11.70
2023-05-23T02:02:45.078Z,11.70
2023-05-23T02:05:12.743Z,11.70
2023-05-23T02:07:40.360Z,11.60
2023-05-23T02:10:08.645Z,11.60
2023-05-23T02:12:36.067Z,11.60
2023-05-23T02:15:03.766Z,11.60
2023-05-23T02:17:31.288Z,11.50
2023-05-23T02:19:58.835Z,11.50
2023-05-23T02:22:26.322Z,11.50
2023-05-23T02:24:53.777Z,11.50
2023-05-23T02:27:21.209Z,11.50
2023-05-23T02:29:48.709Z,11.50
2023-05-23T02:32:16.356Z,11.50
2023-05-23T02:34:46.595Z,11.50
2023-05-23T02:37:14.175Z,11.50
2023-05-23T02:39:41.614Z,11.40
2023-05-23T02:42:09.192Z,11.40
2023-05-23T02:44:36.657Z,11.50
2023-05-23T02:47:04.147Z,11.50
2023-05-23T02:49:31.633Z,11.40
2023-05-23T02:51:59.049Z,11.40
2023-05-23T02:54:26.481Z,11.40
2023-05-23T02:56:54.862Z,11.40
2023-05-23T02:59:23.197Z,11.30
2023-05-23T03:01:50.783Z,11.30
2023-05-23T03:04:18.344Z,11.30
2023-05-23T03:06:45.808Z,11.30
2023-05-23T03:09:15.241Z,11.30
2023-05-23T03:11:43.070Z,11.30
2023-05-23T03:14:10.664Z,11.30
2023-05-23T03:16:38.371Z,11.20
2023-05-23T03:19:06.161Z,11.20
2023-05-23T03:21:35.216Z,11.20
2023-05-23T03:24:02.450Z,11.20
2023-05-23T03:26:29.987Z,11.20
2023-05-23T03:28:57.498Z,11.20
2023-05-23T03:31:25.097Z,11.20
2023-05-23T03:33:53.811Z,11.20
2023-05-23T03:36:22.063Z,11.30
2023-05-23T03:38:49.614Z,11.20
2023-05-23T03:41:26.748Z,11.20
2023-05-23T03:43:54.479Z,11.10
2023-05-23T03:46:22.041Z,11.10
2023-05-23T03:48:49.624Z,11.10
2023-05-23T03:51:17.182Z,11.10
2023-05-23T03:53:44.680Z,11.20
2023-05-23T03:56:12.341Z,11.10
2023-05-23T03:58:39.789Z,11.10
2023-05-23T04:01:07.368Z,11.10
2023-05-23T04:03:35.000Z,11.10
2023-05-23T04:06:02.752Z,11.10
2023-05-23T04:08:34.008Z,11.10
2023-05-23T04:11:02.127Z,11.10
2023-05-23T04:13:31.231Z,11.10
2023-05-23T04:16:01.524Z,11.10
2023-05-23T04:18:29.132Z,11.10
2023-05-23T04:20:56.628Z,11.00
2023-05-23T04:23:24.088Z,11.00
2023-05-23T04:25:51.667Z,10.90
2023-05-23T04:28:19.173Z,10.80
2023-05-23T04:30:49.423Z,10.90
2023-05-23T04:33:18.184Z,10.90
2023-05-23T04:35:46.145Z,10.90
2023-05-23T04:38:13.725Z,11.00
2023-05-23T04:40:41.816Z,10.90
2023-05-23T04:43:10.233Z,11.00
2023-05-23T04:45:37.992Z,11.00
2023-05-23T04:48:05.585Z,10.90
2023-05-23T04:50:35.751Z,11.00
2023-05-23T04:53:03.250Z,11.00
2023-05-23T04:55:30.945Z,10.90
2023-05-23T04:57:58.420Z,10.90
2023-05-23T05:00:26.787Z,10.90
2023-05-23T05:02:54.294Z,10.90
2023-05-23T05:05:21.830Z,10.90
2023-05-23T05:07:49.268Z,10.80
2023-05-23T05:10:17.889Z,10.80
2023-05-23T05:12:52.182Z,10.70
2023-05-23T05:15:19.731Z,10.70
2023-05-23T05:17:49.720Z,10.80
2023-05-23T05:20:17.675Z,10.80
2023-05-23T05:22:45.957Z,10.80
2023-05-23T05:25:13.657Z,10.90
2023-05-23T05:27:41.662Z,10.90
2023-05-23T05:30:09.692Z,10.90
2023-05-23T05:32:37.508Z,11.10
2023-05-23T05:35:05.188Z,11.10
2023-05-23T05:37:32.714Z,11.10
2023-05-23T05:40:06.189Z,11.10
2023-05-23T05:42:34.028Z,11.10
2023-05-23T05:45:01.903Z,11.10
2023-05-23T05:47:29.583Z,11.20
2023-05-23T05:49:57.232Z,11.20
2023-05-23T05:52:24.851Z,11.20
2023-05-23T05:54:52.312Z,11.10
2023-05-23T05:57:19.774Z,11.20
2023-05-23T05:59:47.220Z,11.10
2023-05-23T06:02:14.760Z,11.10
2023-05-23T06:04:42.289Z,11.10
2023-05-23T06:07:09.783Z,11.20
2023-05-23T06:09:38.171Z,11.20
2023-05-23T06:12:05.970Z,11.30
2023-05-23T06:14:33.430Z,11.40
2023-05-23T06:17:01.489Z,11.40
2023-05-23T06:19:29.389Z,11.40
2023-05-23T06:21:57.043Z,11.50
2023-05-23T06:24:24.618Z,11.60
2023-05-23T06:26:52.083Z,11.70
2023-05-23T06:29:19.556Z,11.60
2023-05-23T06:31:47.132Z,11.60
2023-05-23T06:34:14.604Z,11.60
2023-05-23T06:36:42.968Z,11.60
2023-05-23T06:39:10.441Z,11.60
2023-05-23T06:41:38.833Z,11.60
2023-05-23T06:44:06.308Z,11.70
2023-05-23T06:46:33.812Z,11.70
2023-05-23T06:49:13.879Z,11.80
2023-05-23T06:51:42.235Z,11.90
2023-05-23T06:54:10.450Z,12.00
2023-05-23T06:56:37.910Z,12.10
2023-05-23T06:59:05.477Z,12.20
2023-05-23T07:01:33.059Z,12.40
2023-05-23T07:04:00.618Z,12.50
2023-05-23T07:06:28.124Z,12.60
2023-05-23T07:08:55.606Z,12.70
2023-05-23T07:11:23.197Z,12.80
2023-05-23T07:13:50.711Z,12.80
2023-05-23T07:16:18.627Z,12.80
2023-05-23T07:18:46.199Z,12.80
2023-05-23T07:21:13.748Z,12.80
2023-05-23T07:23:41.245Z,12.90
2023-05-23T07:26:09.889Z,13.00
2023-05-23T07:28:43.134Z,13.00
2023-05-23T07:31:12.176Z,13.10
2023-05-23T07:33:39.906Z,13.20
2023-05-23T07:36:07.580Z,13.20
2023-05-23T07:38:35.207Z,13.10
2023-05-23T07:41:11.406Z,13.00
2023-05-23T07:43:40.518Z,13.00
2023-05-23T07:46:08.143Z,13.00
2023-05-23T07:48:36.311Z,13.00
2023-05-23T07:51:04.439Z,13.00
2023-05-23T07:53:32.093Z,13.10
2023-05-23T07:56:00.216Z,13.20
2023-05-23T07:58:29.032Z,13.30
2023-05-23T08:00:58.096Z,13.40
2023-05-23T08:03:26.084Z,13.40
2023-05-23T08:05:53.591Z,13.40
2023-05-23T08:08:21.249Z,13.50
2023-05-23T08:10:49.047Z,13.50
2023-05-23T08:13:17.102Z,13.50
2023-05-23T08:15:44.589Z,13.50
2023-05-23T08:18:12.763Z,13.50
2023-05-23T08:20:41.168Z,13.50
2023-05-23T08:23:09.070Z,13.50
2023-05-23T08:25:36.709Z,13.60
2023-05-23T08:28:04.661Z,13.60
2023-05-23T08:30:33.808Z,13.60
2023-05-23T08:33:04.767Z,13.60
2023-05-23T08:35:36.585Z,13.70
2023-05-23T08:38:06.104Z,13.70
2023-05-23T08:40:34.492Z,13.70
2023-05-23T08:43:03.219Z,13.70
2023-05-23T08:45:34.911Z,13.80
2023-05-23T08:48:03.885Z,13.80
2023-05-23T08:50:32.639Z,13.80
2023-05-23T08:53:02.397Z,13.80
2023-05-23T08:55:31.046Z,13.80
2023-05-23T08:58:00.444Z,13.90
2023-05-23T09:00:28.500Z,13.90
2023-05-23T09:03:00.445Z,13.90
2023-05-23T09:05:29.003Z,14.00
2023-05-23T09:07:58.827Z,13.90
2023-05-23T09:10:30.007Z,13.90
2023-05-23T09:12:58.429Z,14.00
2023-05-23T09:15:28.239Z,14.00
2023-05-23T09:18:02.209Z,14.10
2023-05-23T09:20:34.222Z,14.20
2023-05-23T09:23:06.668Z,14.20
2023-05-23T09:25:36.567Z,14.30
2023-05-23T09:28:05.907Z,14.40
2023-05-23T09:30:34.688Z,14.30
2023-05-23T09:33:05.644Z,14.20
2023-05-23T09:35:33.467Z,14.20
2023-05-23T09:38:01.773Z,14.20
2023-05-23T09:40:33.374Z,14.30
2023-05-23T09:43:05.060Z,14.30
2023-05-23T09:45:33.242Z,14.40
2023-05-23T09:48:02.633Z,14.50
2023-05-23T09:50:34.396Z,14.70
2023-05-23T09:53:02.202Z,14.70
2023-05-23T09:55:30.438Z,14.80
2023-05-23T09:57:59.474Z,15.00
2023-05-23T10:00:29.092Z,15.10
2023-05-23T10:03:11.711Z,15.10
2023-05-23T10:05:50.093Z,15.00
2023-05-23T10:08:26.674Z,14.80
2023-05-23T10:10:57.065Z,14.80
2023-05-23T10:13:26.585Z,14.90
2023-05-23T10:16:07.188Z,15.00
2023-05-23T10:18:38.492Z,15.10
2023-05-23T10:21:09.506Z,15.30
2023-05-23T10:23:37.980Z,15.60
2023-05-23T10:26:05.527Z,15.90
2023-05-23T10:28:33.210Z,16.00
2023-05-23T10:31:00.873Z,16.10
2023-05-23T10:33:32.577Z,16.40
2023-05-23T10:36:05.121Z,16.50
2023-05-23T10:38:36.668Z,16.70
2023-05-23T10:41:11.065Z,16.80
2023-05-23T10:43:55.272Z,17.00
2023-05-23T10:46:23.156Z,17.00
2023-05-23T10:48:54.263Z,17.20
2023-05-23T10:51:22.106Z,17.30
2023-05-23T10:53:54.090Z,17.30
2023-05-23T10:56:23.914Z,17.30
2023-05-23T10:58:55.273Z,17.20
2023-05-23T11:01:23.741Z,16.90
2023-05-23T11:03:54.833Z,16.80
2023-05-23T11:06:42.868Z,16.80
2023-05-23T11:09:11.539Z,16.80
2023-05-23T11:11:54.240Z,16.90
2023-05-23T11:14:32.516Z,17.00
2023-05-23T11:17:00.442Z,17.10
2023-05-23T11:19:29.052Z,17.00
2023-05-23T11:22:01.226Z,17.00
2023-05-23T11:24:47.783Z,17.10
2023-05-23T11:27:15.859Z,17.20
2023-05-23T11:29:43.499Z,17.20
2023-05-23T11:32:16.785Z,17.30
2023-05-23T11:34:45.391Z,17.30
2023-05-23T11:37:13.016Z,17.40
2023-05-23T11:39:40.725Z,17.30
2023-05-23T11:42:08.241Z,17.50
2023-05-23T11:44:35.728Z,18.10
2023-05-23T11:47:03.897Z,18.60
2023-05-23T11:49:31.890Z,18.30
2023-05-23T11:52:00.294Z,18.30
2023-05-23T11:54:28.041Z,18.30
2023-05-23T11:56:55.990Z,18.10
2023-05-23T11:59:26.046Z,17.80
2023-05-23T12:01:53.578Z,17.90
2023-05-23T12:04:21.587Z,17.80
2023-05-23T12:06:49.774Z,17.40
2023-05-23T12:09:17.342Z,17.10
2023-05-23T12:11:46.020Z,17.20
2023-05-23T12:14:17.522Z,17.80
2023-05-23T12:16:46.974Z,18.40
2023-05-23T12:19:17.384Z,19.10
2023-05-23T12:21:45.994Z,19.30
2023-05-23T12:24:20.149Z,19.60
2023-05-23T12:26:51.540Z,19.80
2023-05-23T12:29:28.038Z,19.60
2023-05-23T12:31:57.833Z,19.00
2023-05-23T12:34:25.454Z,18.70
2023-05-23T12:37:06.425Z,18.80
2023-05-23T12:39:44.233Z,19.10
2023-05-23T12:42:11.697Z,20.00
2023-05-23T12:44:41.077Z,20.10
2023-05-23T12:47:08.763Z,19.70
2023-05-23T12:49:36.375Z,19.40
2023-05-23T12:52:03.913Z,19.00
2023-05-23T12:54:31.437Z,18.70
2023-05-23T12:56:58.976Z,18.40
2023-05-23T12:59:26.525Z,18.10
2023-05-23T13:01:54.189Z,18.10
2023-05-23T13:04:21.839Z,18.10
2023-05-23T13:06:49.490Z,18.00
2023-05-23T13:09:17.066Z,17.90
2023-05-23T13:11:44.605Z,17.80
2023-05-23T13:14:13.697Z,17.80
2023-05-23T13:16:41.232Z,17.70
2023-05-23T13:19:08.770Z,17.70
2023-05-23T13:21:36.381Z,17.80
2023-05-23T13:24:03.903Z,17.90
2023-05-23T13:26:31.433Z,18.00
2023-05-23T13:28:58.910Z,18.30
2023-05-23T13:31:27.222Z,18.40
2023-05-23T13:33:54.703Z,18.40
2023-05-23T13:36:22.466Z,18.40
2023-05-23T13:38:49.934Z,18.40
2023-05-23T13:41:17.931Z,18.20
2023-05-23T13:43:45.462Z,18.20
2023-05-23T13:46:13.945Z,18.10
2023-05-23T13:48:41.442Z,18.00
2023-05-23T13:51:08.970Z,18.00
2023-05-23T13:53:36.579Z,17.90
2023-05-23T13:56:04.065Z,17.80
2023-05-23T13:58:32.828Z,17.80
2023-05-23T14:01:00.546Z,17.90
2023-05-23T14:03:28.126Z,17.80
2023-05-23T14:05:55.617Z,17.70
2023-05-23T14:08:23.206Z,17.80
2023-05-23T14:10:50.925Z,18.10
2023-05-23T14:13:18.846Z,18.20
2023-05-23T14:15:48.456Z,18.10
2023-05-23T14:18:16.725Z,18.00
2023-05-23T14:20:44.451Z,17.90
2023-05-23T14:23:12.184Z,18.00
2023-05-23T14:25:39.837Z,18.10
2023-05-23T14:28:09.024Z,18.10
2023-05-23T14:30:36.490Z,18.30
2023-05-23T14:33:09.216Z,18.30
2023-05-23T14:35:39.832Z,18.40
2023-05-23T14:38:07.591Z,18.30
2023-05-23T14:40:35.122Z,18.30
2023-05-23T14:43:02.748Z,18.30
2023-05-23T14:45:30.601Z,18.30
2023-05-23T14:47:58.122Z,18.40
2023-05-23T14:50:26.309Z,18.40
2023-05-23T14:52:54.304Z,18.40
2023-05-23T14:55:21.760Z,18.60
2023-05-23T14:57:49.235Z,18.80
2023-05-23T15:00:17.489Z,19.10
2023-05-23T15:02:45.218Z,19.40
2023-05-23T15:05:12.883Z,19.40
2023-05-23T15:07:40.462Z,19.30
2023-05-23T15:10:08.459Z,19.00
2023-05-23T15:12:36.371Z,18.70
2023-05-23T15:15:05.843Z,18.60
2023-05-23T15:17:33.853Z,18.40
2023-05-23T15:20:02.672Z,18.30
2023-05-23T15:25:02.851Z,18.00
2023-05-23T15:27:30.389Z,17.90
2023-05-23T15:29:58.031Z,17.80
2023-05-23T15:32:25.588Z,17.80
2023-05-23T15:34:53.154Z,18.00
2023-05-23T15:37:20.684Z,18.10
2023-05-23T15:39:49.354Z,18.20
2023-05-23T15:42:16.865Z,18.10
2023-05-23T15:44:44.345Z,18.10
2023-05-23T15:47:11.917Z,18.10
2023-05-23T15:49:39.424Z,18.30
2023-05-23T15:52:07.069Z,18.30
2023-05-23T15:54:34.293Z,18.20
2023-05-23T15:57:01.541Z,18.30
2023-05-23T15:59:29.098Z,18.20
2023-05-23T16:01:57.111Z,18.30
2023-05-23T16:04:24.665Z,18.40
2023-05-23T16:06:52.247Z,18.40
2023-05-23T16:09:19.884Z,18.30
2023-05-23T16:11:47.292Z,18.20
2023-05-23T16:14:14.747Z,18.10
2023-05-23T16:16:42.312Z,18.00
2023-05-23T16:19:10.034Z,18.00
2023-05-23T16:21:37.559Z,18.00
2023-05-23T16:24:05.854Z,18.10
2023-05-23T16:26:33.406Z,18.00
2023-05-23T16:29:00.890Z,18.00
2023-05-23T16:31:30.538Z,18.00
2023-05-23T16:33:58.683Z,18.00
2023-05-23T16:36:26.911Z,18.00
2023-05-23T16:38:55.622Z,18.10
2023-05-23T16:41:23.502Z,18.10
2023-05-23T16:43:51.745Z,18.30
2023-05-23T16:46:22.279Z,18.20
2023-05-23T16:48:50.061Z,18.20
2023-05-23T16:51:17.654Z,18.00
2023-05-23T16:53:45.196Z,17.90
2023-05-23T16:56:12.704Z,17.80
2023-05-23T16:58:40.249Z,17.70
2023-05-23T17:01:08.611Z,17.70
2023-05-23T17:03:36.369Z,17.70
2023-05-23T17:06:04.046Z,17.60
2023-05-23T17:08:31.550Z,17.60
2023-05-23T17:10:59.100Z,17.60
2023-05-23T17:13:26.640Z,17.60
2023-05-23T17:15:54.348Z,17.60
2023-05-23T17:18:21.904Z,17.60
2023-05-23T17:20:49.419Z,17.50
2023-05-23T17:23:17.114Z,17.50
2023-05-23T17:25:44.750Z,17.40
2023-05-23T17:28:12.169Z,17.30
2023-05-23T17:30:39.761Z,17.30
2023-05-23T17:33:08.482Z,17.30
2023-05-23T17:35:36.019Z,17.20
2023-05-23T17:38:04.548Z,17.10
2023-05-23T17:40:32.066Z,17.10
2023-05-23T17:43:00.716Z,17.10
2023-05-23T17:45:28.239Z,17.10
2023-05-23T17:47:56.702Z,17.10
2023-05-23T17:50:24.466Z,17.10
2023-05-23T17:52:52.289Z,17.10
2023-05-23T17:55:20.069Z,17.10
2023-05-23T17:57:47.616Z,17.10
2023-05-23T18:00:16.546Z,17.10
2023-05-23T18:02:44.481Z,17.10
2023-05-23T18:05:11.994Z,17.20
2023-05-23T18:07:39.447Z,17.20
2023-05-23T18:10:08.395Z,17.10
2023-05-23T18:12:36.319Z,17.10
2023-05-23T18:15:03.909Z,17.10
2023-05-23T18:17:31.746Z,17.10
2023-05-23T18:19:59.401Z,17.00
2023-05-23T18:22:26.854Z,17.00
2023-05-23T18:24:54.336Z,16.90
2023-05-23T18:27:21.779Z,16.90
2023-05-23T18:29:49.306Z,16.90
2023-05-23T18:32:16.821Z,16.90
2023-05-23T18:34:44.299Z,16.90
2023-05-23T18:37:11.732Z,16.80
2023-05-23T18:39:39.242Z,16.70
2023-05-23T18:42:06.837Z,16.70
2023-05-23T18:44:34.964Z,16.60
2023-05-23T18:47:02.708Z,16.60
2023-05-23T18:49:30.214Z,16.50
2023-05-23T18:51:58.363Z,16.50
2023-05-23T18:54:26.011Z,16.40
2023-05-23T18:56:53.468Z,16.40
2023-05-23T18:59:21.197Z,16.40
2023-05-23T19:01:48.901Z,16.30
2023-05-23T19:04:17.403Z,16.30
2023-05-23T19:06:45.265Z,16.30
2023-05-23T19:09:12.826Z,16.20
2023-05-23T19:11:40.302Z,16.10
2023-05-23T19:14:07.784Z,16.00
2023-05-23T19:16:36.264Z,16.00
2023-05-23T19:19:03.928Z,16.00
2023-05-23T19:21:31.951Z,16.00
2023-05-23T19:23:59.523Z,15.90
2023-05-23T19:26:27.138Z,15.80
2023-05-23T19:28:54.594Z,15.80
2023-05-23T19:31:22.231Z,15.80
2023-05-23T19:33:49.829Z,15.80
2023-05-23T19:36:17.418Z,15.70
2023-05-23T19:38:45.070Z,15.70
2023-05-23T19:41:12.557Z,15.60
2023-05-23T19:43:39.909Z,15.60
2023-05-23T19:46:07.261Z,15.60
2023-05-23T19:48:34.745Z,15.50
2023-05-23T19:51:02.198Z,15.50
2023-05-23T19:53:29.724Z,15.40
2023-05-23T19:55:57.638Z,15.30
2023-05-23T19:58:25.116Z,15.30
2023-05-23T20:00:52.909Z,15.30
2023-05-23T20:03:20.593Z,15.20
2023-05-23T20:05:48.307Z,15.20
2023-05-23T20:08:17.251Z,15.10
2023-05-23T20:10:44.878Z,15.10
2023-05-23T20:13:12.474Z,15.10
2023-05-23T20:15:40.735Z,15.00
2023-05-23T20:18:08.530Z,15.00
2023-05-23T20:20:36.163Z,15.00
2023-05-23T20:23:03.845Z,14.90
2023-05-23T20:25:31.570Z,14.90
2023-05-23T20:27:59.331Z,14.90
2023-05-23T20:30:26.961Z,14.80
2023-05-23T20:32:54.621Z,14.80
2023-05-23T20:35:22.637Z,14.80
2023-05-23T20:37:53.656Z,14.80
2023-05-23T20:40:22.282Z,14.70
2023-05-23T20:42:50.119Z,14.70
2023-05-23T20:45:17.716Z,14.70
2023-05-23T20:47:46.334Z,14.70
2023-05-23T20:50:14.750Z,14.60
2023-05-23T20:52:43.202Z,14.70
2023-05-23T20:55:11.177Z,14.70
2023-05-23T20:57:39.563Z,14.60
2023-05-23T21:00:13.422Z,14.60
2023-05-23T21:02:41.710Z,14.60
2023-05-23T21:05:10.227Z,14.50
2023-05-23T21:07:38.602Z,14.50
2023-05-23T21:10:07.138Z,14.40
2023-05-23T21:12:34.641Z,14.40
2023-05-23T21:15:02.258Z,14.40
2023-05-23T21:17:30.085Z,14.30
2023-05-23T21:19:57.646Z,14.30
2023-05-23T21:22:25.148Z,14.30
2023-05-23T21:24:52.575Z,14.20
2023-05-23T21:27:20.165Z,14.20
2023-05-23T21:29:47.667Z,14.10
2023-05-23T21:32:15.147Z,14.10
2023-05-23T21:34:42.662Z,14.10
2023-05-23T21:37:10.207Z,14.10
2023-05-23T21:39:50.685Z,14.10
2023-05-23T21:42:19.896Z,14.10
2023-05-23T21:44:47.643Z,14.10
2023-05-23T21:47:15.168Z,14.00
2023-05-23T21:49:42.816Z,14.00
2023-05-23T21:52:10.297Z,14.00
2023-05-23T21:54:37.737Z,14.00
2023-05-23T21:57:05.240Z,13.90
2023-05-23T21:59:32.743Z,13.90
2023-05-23T22:02:01.017Z,13.90
2023-05-23T22:04:28.669Z,13.90
2023-05-23T22:06:56.149Z,13.80
2023-05-23T22:09:23.574Z,13.80
2023-05-23T22:11:51.124Z,13.80
2023-05-23T22:14:18.787Z,13.80
2023-05-23T22:16:46.373Z,13.70
2023-05-23T22:19:18.009Z,13.70
2023-05-23T22:21:45.698Z,13.70
2023-05-23T22:24:13.123Z,13.70
2023-05-23T22:26:40.766Z,13.70
2023-05-23T22:29:08.251Z,13.70
2023-05-23T22:31:37.537Z,13.70
2023-05-23T22:34:05.102Z,13.70
2023-05-23T22:36:33.535Z,13.60
2023-05-23T22:39:05.429Z,13.60
2023-05-23T22:41:33.315Z,13.60
2023-05-23T22:44:01.097Z,13.60
2023-05-23T22:46:28.761Z,13.60
2023-05-23T22:48:56.396Z,13.60
2023-05-23T22:51:24.797Z,13.60
2023-05-23T22:53:52.924Z,13.60
2023-05-23T22:56:20.475Z,13.60
2023-05-23T22:58:47.935Z,13.60
2023-05-23T23:01:15.825Z,13.60
2023-05-23T23:03:43.546Z,13.60
2023-05-23T23:06:11.148Z,13.50
2023-05-23T23:08:38.600Z,13.50
2023-05-23T23:11:06.142Z,13.50
2023-05-23T23:13:33.781Z,13.40
2023-05-23T23:16:01.850Z,13.50
2023-05-23T23:18:30.096Z,13.50
2023-05-23T23:20:58.251Z,13.50
2023-05-23T23:23:26.126Z,13.50
2023-05-23T23:25:53.975Z,13.60
2023-05-23T23:28:22.322Z,13.50
2023-05-23T23:30:50.663Z,13.50
2023-05-23T23:33:18.163Z,13.50
2023-05-23T23:35:48.519Z,13.40
2023-05-23T23:38:16.486Z,13.50
2023-05-23T23:40:45.781Z,13.40
2023-05-23T23:43:14.024Z,13.30
2023-05-23T23:45:43.196Z,13.30
2023-05-23T23:48:13.926Z,13.30
2023-05-23T23:50:41.745Z,13.30
2023-05-23T23:53:09.404Z,13.30
2023-05-23T23:55:36.945Z,13.30
2023-05-23T23:58:04.335Z,13.30
